Time;durP1;ratioP1;P1;durP2;ratioP2;P2;SDS_P1;SDS_P2;PMS_P1;PMS_P2;Temp;Humidity;BMP_temperature;BMP_pressure;BME280_temperature;BME280_humidity;BME280_pressure;Samples;Min_cycle;Max_cycle;Signal;HPM_P1;HPM_P2
2022/06/08 00:14:55;;;;;;;17.65;12.05;;;;;;;21.24;97.13;99951.14;712418;1179;115312;-75
2022/06/08 00:29:59;;;;;;;15.85;12.35;;;;;;;21.01;98.56;99953.52;712374;1178;116236;-76
2022/06/08 00:45:07;;;;;;;16.45;11.70;;;;;;;20.83;100.00;99947.03;712371;1179;115976;-77
2022/06/08 01:00:12;;;;;;;23.50;15.70;;;;;;;20.78;100.00;99945.02;712370;1177;115764;-76
2022/06/08 01:15:20;;;;;;;15.83;12.20;;;;;;;20.60;100.00;99956.31;712210;1179;115262;-76
2022/06/08 01:30:57;;;;;;;20.93;13.73;;;;;;;20.45;100.00;99942.41;712262;1177;115938;-75
2022/06/08 01:46:19;;;;;;;16.65;13.25;;;;;;;20.47;100.00;99927.05;712214;1178;116129;-76
2022/06/08 02:01:45;;;;;;;16.90;12.60;;;;;;;20.52;100.00;99918.41;712472;1178;116317;-75
2022/06/08 02:17:04;;;;;;;19.15;13.05;;;;;;;20.39;100.00;99916.59;712806;1179;115652;-77
2022/06/08 02:47:37;;;;;;;16.48;11.88;;;;;;;20.73;100.00;99910.19;712420;1177;115616;-76
2022/06/08 03:02:47;;;;;;;14.13;10.93;;;;;;;20.69;100.00;99908.11;712644;1177;115539;-76
2022/06/08 03:17:50;;;;;;;;;;;;;;;20.69;100.00;99900.95;712332;1177;115879;-75
2022/06/08 03:32:52;;;;;;;16.30;11.70;;;;;;;20.62;100.00;99902.80;712295;1180;100787;-74
2022/06/08 03:47:55;;;;;;;15.38;10.05;;;;;;;20.63;100.00;99907.11;712164;1177;115748;-75
2022/06/08 04:02:57;;;;;;;16.85;10.50;;;;;;;20.58;100.00;99913.05;712164;1180;115604;-75
2022/06/08 04:18:03;;;;;;;18.77;12.27;;;;;;;20.56;100.00;99924.95;712151;1177;115911;-75
2022/06/08 04:33:06;;;;;;;21.25;13.65;;;;;;;20.52;100.00;99932.56;712231;1179;115130;-75
2022/06/08 04:48:10;;;;;;;20.35;14.48;;;;;;;20.41;100.00;99933.20;712278;1177;115325;-76
2022/06/08 05:03:12;;;;;;;19.97;15.07;;;;;;;20.50;100.00;99925.81;712349;1177;115509;-77
2022/06/08 05:18:18;;;;;;;20.47;14.30;;;;;;;20.78;100.00;99926.36;712107;1177;115903;-75
2022/06/08 05:33:20;;;;;;;19.23;14.53;;;;;;;20.92;100.00;99940.44;712551;1180;116452;-75
2022/06/08 05:48:24;;;;;;;20.70;14.00;;;;;;;21.09;100.00;99940.77;712424;1178;114702;-75
2022/06/08 06:03:26;;;;;;;19.80;15.37;;;;;;;21.37;100.00;99934.25;712191;1179;115439;-75
2022/06/08 06:18:29;;;;;;;18.80;13.60;;;;;;;21.60;99.66;99947.08;712505;1178;116250;-76
2022/06/08 06:33:31;;;;;;;19.35;13.05;;;;;;;22.43;97.90;99933.63;712517;1178;115765;-75
2022/06/08 06:48:36;;;;;;;14.15;9.85;;;;;;;22.66;94.64;99924.13;712436;1177;116191;-76
2022/06/08 07:03:39;;;;;;;12.35;9.35;;;;;;;23.14;93.31;99939.39;712881;1180;115171;-79
2022/06/08 07:18:42;;;;;;;12.35;9.00;;;;;;;23.32;90.82;99933.18;713249;1179;113764;-76
2022/06/08 07:33:46;;;;;;;9.90;7.25;;;;;;;23.83;88.00;99922.09;712499;1177;115086;-76
2022/06/08 08:04:10;;;;;;;9.40;6.50;;;;;;;25.04;83.22;99913.43;713299;1179;115783;-74
2022/06/08 08:19:17;;;;;;;5.97;4.47;;;;;;;25.40;80.83;99929.39;713451;1177;115480;-73
2022/06/08 08:34:19;;;;;;;7.10;5.40;;;;;;;25.56;79.78;99936.66;714101;1180;115002;-74
2022/06/08 08:49:23;;;;;;;8.50;5.30;;;;;;;25.76;78.10;99924.59;713595;1180;114132;-74
2022/06/08 09:04:31;;;;;;;10.30;5.50;;;;;;;25.96;76.76;99944.77;713361;1177;115706;-77
2022/06/08 09:19:41;;;;;;;7.53;5.25;;;;;;;25.75;76.03;99939.11;712787;1177;115763;-75
2022/06/08 09:34:54;;;;;;;10.37;4.97;;;;;;;25.36;75.64;99942.47;712973;1179;115576;-75
2022/06/08 10:05:41;;;;;;;6.50;5.80;;;;;;;25.13;77.53;99942.55;712454;1177;115065;-74
2022/06/08 10:21:16;;;;;;;7.83;5.83;;;;;;;25.16;77.36;99934.84;712377;1177;115116;-75
2022/06/08 10:36:19;;;;;;;9.90;7.68;;;;;;;25.54;77.22;99921.84;712432;1180;114792;-75
2022/06/08 10:51:29;;;;;;;7.97;6.50;;;;;;;25.62;77.22;99916.06;712956;1179;115808;-72
2022/06/08 11:06:51;;;;;;;7.83;6.65;;;;;;;25.38;76.75;99913.53;712574;1177;115547;-72
2022/06/08 11:21:58;;;;;;;8.30;6.23;;;;;;;25.49;75.78;99925.25;712542;1177;114970;-77
2022/06/08 11:37:29;;;;;;;9.10;7.30;;;;;;;25.55;75.50;99926.14;712300;1178;115654;-78
2022/06/08 11:52:38;;;;;;;9.85;5.90;;;;;;;25.67;76.27;99937.64;712359;1173;114820;-76
2022/06/08 12:07:56;;;;;;;7.35;6.45;;;;;;;25.82;75.88;99936.25;712399;1180;115637;-74
2022/06/08 12:23:00;;;;;;;8.15;6.65;;;;;;;25.66;74.17;99919.89;712788;1180;115585;-74
2022/06/08 12:38:19;;;;;;;7.43;6.08;;;;;;;25.83;74.63;99900.28;712459;1177;114612;-75
2022/06/08 12:53:22;;;;;;;7.55;6.33;;;;;;;25.66;74.26;99911.03;716472;1177;115568;-74
2022/06/08 13:08:28;;;;;;;16.50;9.05;;;;;;;25.77;73.58;99906.63;712620;1178;115439;-77
2022/06/08 13:23:31;;;;;;;8.45;6.28;;;;;;;25.87;72.90;99885.30;712933;1179;115654;-76
2022/06/08 13:38:33;;;;;;;11.30;5.88;;;;;;;26.30;71.11;99886.42;712782;1177;117621;-76
2022/06/08 13:53:36;;;;;;;5.38;4.70;;;;;;;26.73;69.49;99873.26;712490;1179;115659;-75
2022/06/08 14:24:01;;;;;;;8.30;4.75;;;;;;;27.24;68.66;99862.19;712492;1180;115751;-76
2022/06/08 14:39:05;;;;;;;6.05;5.45;;;;;;;27.54;67.11;99856.26;712726;1180;115591;-76
2022/06/08 14:54:16;;;;;;;6.90;5.80;;;;;;;27.56;66.47;99853.30;712822;1180;114882;-76
2022/06/08 15:09:23;;;;;;;5.45;4.90;;;;;;;28.23;66.53;99843.72;712430;1170;114271;-75
2022/06/08 15:24:28;;;;;;;6.80;5.20;;;;;;;28.23;64.65;99835.64;712604;1179;114704;-75
2022/06/08 15:39:33;;;;;;;5.30;4.65;;;;;;;27.59;63.04;99820.45;712271;1180;115732;-75
2022/06/08 15:54:44;;;;;;;6.55;5.15;;;;;;;27.65;64.43;99826.67;712252;1177;115281;-75
2022/06/08 16:09:47;;;;;;;4.30;3.85;;;;;;;27.47;63.62;99822.53;712644;1177;115641;-77
2022/06/08 16:24:50;;;;;;;4.20;3.60;;;;;;;27.56;63.24;99818.28;712830;1179;115314;-74
2022/06/08 16:39:58;;;;;;;5.53;4.00;;;;;;;27.46;62.62;99805.55;712686;1177;114946;-75
2022/06/08 16:55:01;;;;;;;6.60;5.10;;;;;;;27.31;63.60;99797.35;712695;1178;115670;-74
2022/06/08 17:10:04;;;;;;;5.00;3.80;;;;;;;27.22;62.79;99797.01;712315;1180;115777;-74
2022/06/08 17:25:11;;;;;;;9.33;5.90;;;;;;;26.78;64.16;99772.95;712545;1178;114150;-76
2022/06/08 17:40:16;;;;;;;7.63;5.48;;;;;;;26.51;65.46;99771.86;712661;1178;115031;-76
2022/06/08 17:55:18;;;;;;;9.60;7.50;;;;;;;26.32;67.11;99778.67;712597;1180;115097;-72
2022/06/08 18:10:24;;;;;;;7.80;6.60;;;;;;;25.99;68.46;99780.41;712485;1180;115818;-71
2022/06/08 18:25:29;;;;;;;13.20;8.40;;;;;;;25.58;70.31;99777.98;712905;1178;115019;-71
2022/06/08 18:40:31;;;;;;;19.55;15.58;;;;;;;25.21;72.06;99799.95;712267;1179;115016;-72
2022/06/08 18:55:38;;;;;;;17.57;12.50;;;;;;;24.57;74.00;99800.95;713059;1177;114582;-73
2022/06/08 19:10:41;;;;;;;389.93;142.03;;;;;;;23.92;76.12;99810.92;712532;1179;115419;-72
2022/06/08 19:25:46;;;;;;;108.50;51.60;;;;;;;23.20;77.85;99811.92;713253;1180;115606;-73
2022/06/08 19:40:49;;;;;;;34.90;22.70;;;;;;;22.88;80.02;99828.21;712651;1179;115913;-73
2022/06/08 19:55:52;;;;;;;21.58;16.88;;;;;;;22.20;81.04;99830.09;712441;1177;115062;-73
2022/06/08 20:10:55;;;;;;;18.63;12.97;;;;;;;21.52;84.36;99827.20;712511;1180;115235;-73
2022/06/08 20:25:58;;;;;;;20.15;14.60;;;;;;;21.11;87.12;99834.73;713143;1178;115400;-73
2022/06/08 20:41:01;;;;;;;22.70;13.75;;;;;;;20.88;88.15;99845.93;713104;1180;115008;-74
2022/06/08 20:56:03;;;;;;;16.20;12.40;;;;;;;20.54;89.54;99841.77;713066;1177;114444;-73
2022/06/08 21:11:06;;;;;;;19.78;12.38;;;;;;;20.51;90.47;99845.67;712749;1178;115329;-73
2022/06/08 21:26:08;;;;;;;30.58;19.38;;;;;;;20.25;90.57;99844.72;713034;1180;116146;-73
2022/06/08 21:41:12;;;;;;;22.55;15.43;;;;;;;19.97;90.66;99850.34;713710;1180;114967;-73
2022/06/08 21:56:15;;;;;;;19.55;12.58;;;;;;;19.53;92.04;99839.30;713525;1177;114937;-73
2022/06/08 22:11:21;;;;;;;20.40;13.73;;;;;;;19.73;93.61;99849.92;713060;1178;114418;-74
2022/06/08 22:26:26;;;;;;;28.18;16.95;;;;;;;19.53;92.11;99833.14;713608;1178;116066;-73
2022/06/08 22:41:28;;;;;;;26.28;16.33;;;;;;;19.29;91.77;99825.59;713017;1180;115298;-74
2022/06/08 22:56:30;;;;;;;28.80;17.30;;;;;;;19.23;91.67;99814.95;712798;1180;115190;-74
2022/06/08 23:11:41;;;;;;;31.20;19.08;;;;;;;19.09;91.10;99803.47;712738;1177;115911;-74
2022/06/08 23:26:44;;;;;;;26.83;16.87;;;;;;;18.24;94.50;99801.17;712924;1180;115740;-74
2022/06/08 23:41:47;;;;;;;25.43;15.90;;;;;;;17.72;97.69;99776.75;712412;1180;115707;-74
2022/06/08 23:57:04;;;;;;;22.40;14.77;;;;;;;17.61;98.46;99786.07;712395;1177;115863;-74
